Time;durP1;ratioP1;P1;durP2;ratioP2;P2;SDS_P1;SDS_P2;PMS_P1;PMS_P2;Temp;Humidity;BMP_temperature;BMP_pressure;BME280_temperature;BME280_humidity;BME280_pressure;Samples;Min_cycle;Max_cycle;Signal;HPM_P1;HPM_P2
2023/05/21 00:00:54;;;;;;;22.00;4.70;;;;;;;-143.84;50.88;45054.78;5070858;28;20440;-54
2023/05/21 00:03:25;;;;;;;12.43;5.20;;;;;;;-143.84;50.85;45058.59;5070432;28;20999;-54
2023/05/21 00:05:53;;;;;;;10.17;3.93;;;;;;;-143.84;51.08;45073.81;5070330;28;20489;-54
2023/05/21 00:08:20;;;;;;;6.40;4.47;;;;;;;-143.84;51.27;45037.66;5070164;28;20524;-54
2023/05/21 00:10:47;;;;;;;10.50;4.70;;;;;;;-143.84;51.10;45085.25;5070127;28;21219;-54
2023/05/21 00:13:16;;;;;;;10.30;5.20;;;;;;;-143.84;51.08;45047.16;5070285;28;20433;-54
2023/05/21 00:15:43;;;;;;;8.13;4.50;;;;;;;-143.84;51.17;45052.88;5070108;28;20429;-54
2023/05/21 00:18:10;;;;;;;9.10;4.50;;;;;;;-143.84;50.94;45052.88;5070349;28;20692;-54
2023/05/21 00:20:37;;;;;;;8.70;4.37;;;;;;;-143.84;50.90;45079.53;5070025;28;20449;-54
2023/05/21 00:23:05;;;;;;;6.10;4.80;;;;;;;-143.84;51.03;45064.31;5070085;28;20445;-54
2023/05/21 00:25:32;;;;;;;7.27;4.77;;;;;;;-143.84;51.13;45062.41;5070043;28;20484;-54
2023/05/21 00:27:59;;;;;;;6.77;4.47;;;;;;;-143.84;51.02;45090.97;5069799;28;20908;-54
2023/05/21 00:30:27;;;;;;;8.33;4.53;;;;;;;-143.84;50.98;45070.00;5070014;28;20533;-54
2023/05/21 00:32:57;;;;;;;11.63;4.73;;;;;;;-143.84;51.06;45066.22;5069923;28;20479;-54
2023/05/21 00:35:24;;;;;;;9.53;4.40;;;;;;;-143.84;51.26;45060.50;5069977;28;20957;-54
2023/05/21 00:37:52;;;;;;;7.00;4.63;;;;;;;-143.84;51.22;45077.63;5070194;28;20962;-54
2023/05/21 00:40:19;;;;;;;13.40;4.67;;;;;;;-143.84;51.49;45056.69;5069692;28;21170;-54
2023/05/21 00:42:46;;;;;;;9.80;4.50;;;;;;;-143.84;51.60;45064.31;5069669;28;20434;-54
2023/05/21 00:45:14;;;;;;;7.60;5.33;;;;;;;-143.84;51.84;45117.63;5069579;28;20445;-54
2023/05/21 00:47:43;;;;;;;13.80;5.30;;;;;;;-143.84;51.96;45071.91;5069590;28;21001;-53
2023/05/21 00:50:13;;;;;;;9.90;5.70;;;;;;;-143.84;51.87;45085.25;5069485;28;20475;-54
2023/05/21 00:52:41;;;;;;;10.87;4.80;;;;;;;-143.84;52.25;45070.00;5069479;28;20441;-53
2023/05/21 00:55:09;;;;;;;8.13;4.90;;;;;;;-143.84;52.53;45071.91;5069634;28;20943;-54
2023/05/21 00:57:37;;;;;;;8.10;4.67;;;;;;;-143.84;52.72;45058.59;5069393;28;21004;-54
2023/05/21 01:00:07;;;;;;;7.30;5.20;;;;;;;-143.84;52.71;45085.25;5069324;28;20919;-54
2023/05/21 01:02:35;;;;;;;12.27;4.80;;;;;;;-143.84;52.93;45047.16;5069577;28;20512;-54
2023/05/21 01:05:05;;;;;;;10.67;4.70;;;;;;;-143.84;53.08;45068.13;5069109;28;20440;-55
2023/05/21 01:07:34;;;;;;;13.20;4.20;;;;;;;-143.84;53.18;45064.31;5069306;28;21051;-54
2023/05/21 01:10:03;;;;;;;11.10;4.27;;;;;;;-143.84;53.67;45071.91;5069289;28;20989;-54
2023/05/21 01:12:33;;;;;;;14.90;5.40;;;;;;;-143.84;53.95;45068.13;5069198;28;20448;-54
2023/05/21 01:15:01;;;;;;;14.70;5.40;;;;;;;-143.84;53.89;45070.00;5069039;28;20430;-54
2023/05/21 01:17:30;;;;;;;11.87;4.63;;;;;;;-143.84;53.69;45085.25;5069115;28;20449;-54
2023/05/21 01:19:58;;;;;;;14.30;5.77;;;;;;;-143.84;53.98;45089.06;5068977;28;20437;-54
2023/05/21 01:22:31;;;;;;;11.83;4.90;;;;;;;-143.84;54.45;45064.31;5068637;28;20487;-54
2023/05/21 01:25:01;;;;;;;17.77;4.90;;;;;;;-143.84;54.29;45075.72;5069196;28;20931;-55
2023/05/21 01:27:28;;;;;;;8.27;4.60;;;;;;;-143.84;54.58;45071.91;5068863;28;20864;-54
2023/05/21 01:29:56;;;;;;;7.87;4.53;;;;;;;-143.84;54.66;45071.91;5068931;28;20445;-55
2023/05/21 01:32:31;;;;;;;5.40;4.90;;;;;;;-143.84;54.70;45071.91;5068990;28;20441;-55
2023/05/21 01:35:04;;;;;;;11.93;5.03;;;;;;;-143.84;54.55;45073.81;5068828;28;20491;-55
2023/05/21 01:37:36;;;;;;;7.60;4.57;;;;;;;-143.84;54.57;45079.53;5069102;28;20502;-54
2023/05/21 01:40:11;;;;;;;20.23;5.37;;;;;;;-143.84;54.54;45096.66;5069099;28;21285;-55
2023/05/21 01:42:42;;;;;;;7.93;5.27;;;;;;;-143.84;54.60;45075.72;5068823;28;20449;-55
2023/05/21 01:45:11;;;;;;;11.80;5.17;;;;;;;-143.84;54.69;45081.44;5068842;28;20905;-54
2023/05/21 01:47:41;;;;;;;23.20;6.23;;;;;;;-143.84;54.99;45068.13;5068783;28;20480;-55
2023/05/21 01:50:09;;;;;;;9.10;5.37;;;;;;;-143.84;55.19;45052.88;5068705;28;20947;-54
2023/05/21 01:52:37;;;;;;;15.70;5.13;;;;;;;-143.84;55.14;45079.53;5068875;28;20433;-55
2023/05/21 01:55:06;;;;;;;16.40;5.07;;;;;;;-143.84;55.17;45066.22;5068654;28;20454;-55
2023/05/21 01:57:33;;;;;;;9.23;5.10;;;;;;;-143.84;54.84;45052.88;5068833;28;20450;-55
2023/05/21 02:00:01;;;;;;;8.30;4.80;;;;;;;-143.84;55.06;45064.31;5068622;28;20491;-54
2023/05/21 02:02:28;;;;;;;20.50;5.77;;;;;;;-143.84;55.33;45075.72;5068590;28;20942;-55
2023/05/21 02:04:55;;;;;;;15.73;4.80;;;;;;;-143.84;55.31;45075.72;5068502;28;20510;-55
2023/05/21 02:07:23;;;;;;;11.33;4.90;;;;;;;-143.84;55.56;45073.81;5068527;28;20468;-54
2023/05/21 02:09:50;;;;;;;14.00;4.40;;;;;;;-143.84;55.78;45071.91;5068561;28;20529;-54
2023/05/21 02:12:18;;;;;;;18.17;5.50;;;;;;;-143.84;55.40;45087.16;5068564;28;20449;-54
2023/05/21 02:14:49;;;;;;;10.60;4.80;;;;;;;-143.84;55.41;45087.16;5068636;28;20441;-54
2023/05/21 02:17:17;;;;;;;17.87;5.20;;;;;;;-143.84;55.54;45092.88;5068506;28;20445;-54
2023/05/21 02:19:44;;;;;;;13.87;5.07;;;;;;;-143.84;55.25;45081.44;5068556;28;20567;-54
2023/05/21 02:22:11;;;;;;;9.63;4.60;;;;;;;-143.84;54.86;45077.63;5068470;28;20473;-55
2023/05/21 02:24:39;;;;;;;20.23;5.20;;;;;;;-143.84;54.97;45092.88;5068460;28;20774;-54
2023/05/21 02:27:06;;;;;;;6.63;5.00;;;;;;;-143.84;54.72;45064.31;5068116;28;20492;-54
2023/05/21 02:29:34;;;;;;;6.07;4.30;;;;;;;-143.84;54.97;45079.53;5068379;28;20441;-54
2023/05/21 02:32:02;;;;;;;18.77;4.80;;;;;;;-143.84;54.97;45052.88;5068662;28;20522;-54
2023/05/21 02:34:31;;;;;;;13.00;5.40;;;;;;;-143.84;54.97;45075.72;5069963;28;20514;-54
2023/05/21 02:36:58;;;;;;;12.50;5.17;;;;;;;-143.84;55.32;45089.06;5071970;28;20443;-54
2023/05/21 02:39:25;;;;;;;10.17;4.80;;;;;;;-143.84;55.66;45083.34;5072034;28;20528;-54
2023/05/21 02:41:52;;;;;;;7.43;5.00;;;;;;;-143.84;55.74;45094.78;5072049;28;20961;-54
2023/05/21 02:44:22;;;;;;;7.50;4.90;;;;;;;-143.84;55.47;45079.53;5072048;28;20445;-54
2023/05/21 02:46:51;;;;;;;4.47;3.87;;;;;;;-143.84;55.57;45081.44;5071681;28;20484;-54
2023/05/21 02:49:18;;;;;;;6.73;4.40;;;;;;;-143.84;55.92;45102.38;5072003;28;20575;-54
2023/05/21 02:51:45;;;;;;;5.77;5.20;;;;;;;-143.84;55.66;45071.91;5071830;28;20466;-54
2023/05/21 02:54:12;;;;;;;10.23;4.77;;;;;;;-143.84;56.09;45081.44;5071834;28;21016;-55
2023/05/21 02:56:39;;;;;;;13.13;4.87;;;;;;;-143.84;55.95;45089.06;5071690;28;20445;-54
2023/05/21 02:59:07;;;;;;;8.93;4.70;;;;;;;-143.84;56.20;45083.34;5071725;28;20903;-54
2023/05/21 03:01:34;;;;;;;16.07;4.90;;;;;;;-143.84;56.29;45068.13;5071538;28;20449;-54
2023/05/21 03:04:02;;;;;;;10.13;4.50;;;;;;;-143.84;56.32;45075.72;5071962;28;20490;-55
2023/05/21 03:06:30;;;;;;;5.97;4.80;;;;;;;-143.84;56.28;45077.63;5071515;28;20476;-54
2023/05/21 03:08:57;;;;;;;7.40;4.70;;;;;;;-143.84;56.27;45083.34;5071618;28;20472;-54
2023/05/21 03:11:25;;;;;;;13.80;5.53;;;;;;;-143.84;55.97;45075.72;5071321;28;20442;-54
2023/05/21 03:13:52;;;;;;;5.83;4.70;;;;;;;-143.84;55.49;45090.97;5071755;28;20445;-54
2023/05/21 03:16:19;;;;;;;31.57;5.27;;;;;;;-143.84;55.31;45056.69;5071355;28;20441;-54
2023/05/21 03:18:46;;;;;;;8.00;4.70;;;;;;;-143.84;55.18;45054.78;5071273;28;20495;-54
2023/05/21 03:21:15;;;;;;;15.60;5.10;;;;;;;-143.84;54.87;45052.88;5071638;28;20445;-54
2023/05/21 03:23:42;;;;;;;7.80;4.40;;;;;;;-143.84;54.41;45077.63;5071182;28;20463;-54
2023/05/21 03:26:09;;;;;;;8.20;4.30;;;;;;;-143.84;54.06;45070.00;5071144;28;20444;-54
2023/05/21 03:28:36;;;;;;;9.00;4.70;;;;;;;-143.84;53.75;45079.53;5071027;28;20538;-54
2023/05/21 03:31:03;;;;;;;8.73;4.20;;;;;;;-143.84;52.15;45083.34;5071025;28;20453;-54
2023/05/21 03:33:30;;;;;;;10.83;4.53;;;;;;;-143.84;51.13;45026.22;5071043;28;21014;-55
2023/05/21 03:35:57;;;;;;;12.70;4.60;;;;;;;-143.84;49.59;45077.63;5071130;28;20552;-54
2023/05/21 03:38:26;;;;;;;9.90;3.97;;;;;;;-143.84;48.83;45043.34;5070871;28;20502;-55
2023/05/21 03:40:53;;;;;;;7.37;4.90;;;;;;;-143.84;47.79;45018.59;5071255;28;20449;-54
2023/05/21 03:43:20;;;;;;;7.83;4.67;;;;;;;-143.84;46.80;45062.41;5071290;28;20523;-54
2023/05/21 03:45:48;;;;;;;6.57;4.60;;;;;;;-143.84;46.03;45033.84;5070255;28;20453;-54
2023/05/21 03:48:15;;;;;;;8.03;4.37;;;;;;;-143.84;44.96;45045.25;5071060;28;20539;-54
2023/05/21 03:50:42;;;;;;;17.77;5.50;;;;;;;-143.84;44.37;45018.59;5071003;28;21397;-55
2023/05/21 03:53:09;;;;;;;8.20;4.53;;;;;;;-143.84;43.55;45043.34;5070877;28;20498;-55
2023/05/21 03:55:38;;;;;;;7.00;4.30;;;;;;;-143.84;43.08;45035.75;5071196;28;20470;-55
2023/05/21 03:58:05;;;;;;;20.83;5.30;;;;;;;-143.84;43.33;45052.88;5070769;28;20504;-54
2023/05/21 04:00:33;;;;;;;6.20;4.13;;;;;;;-143.84;43.09;45022.41;5070804;28;20468;-55
2023/05/21 04:03:00;;;;;;;16.37;4.40;;;;;;;-143.84;42.41;45035.75;5070628;28;20461;-55
2023/05/21 04:05:27;;;;;;;7.63;4.50;;;;;;;-143.84;41.88;45026.22;5070153;28;20534;-55
2023/05/21 04:07:54;;;;;;;8.70;3.90;;;;;;;-143.84;41.60;45024.31;5057830;28;20583;-55
2023/05/21 04:10:21;;;;;;;6.10;3.83;;;;;;;-143.84;40.88;45039.53;5054678;28;20449;-55
2023/05/21 04:12:51;;;;;;;3.90;3.60;;;;;;;-143.84;41.05;45047.16;5090610;28;20450;-55
2023/05/21 04:15:18;;;;;;;7.57;4.53;;;;;;;-143.84;41.82;45033.84;5090440;28;20455;-54
2023/05/21 04:17:45;;;;;;;9.33;4.50;;;;;;;-143.84;42.52;45037.66;5090137;28;20512;-55
2023/05/21 04:20:15;;;;;;;7.57;4.13;;;;;;;-143.84;42.40;45049.06;5090169;28;20512;-55
2023/05/21 04:22:42;;;;;;;12.83;3.93;;;;;;;-143.84;42.74;45062.41;5089307;28;20447;-55
2023/05/21 04:25:10;;;;;;;6.20;4.13;;;;;;;-143.84;42.34;45018.59;5089991;28;21020;-55
2023/05/21 04:27:37;;;;;;;21.00;5.33;;;;;;;-143.84;42.31;45070.00;5089495;28;20555;-55
2023/05/21 04:30:07;;;;;;;9.53;4.50;;;;;;;-143.84;41.71;45030.03;5089812;28;20509;-55
2023/05/21 04:32:34;;;;;;;7.20;4.20;;;;;;;-143.84;41.63;45024.31;5090077;28;20433;-55
2023/05/21 04:35:03;;;;;;;11.43;3.93;;;;;;;-143.84;41.33;45033.84;5090043;28;20951;-55
2023/05/21 04:37:33;;;;;;;10.23;4.60;;;;;;;-143.84;40.90;45031.94;5089889;28;20454;-55
2023/05/21 04:40:01;;;;;;;6.53;4.27;;;;;;;-143.84;40.23;45049.06;5090042;28;21021;-55
2023/05/21 04:42:29;;;;;;;10.73;4.50;;;;;;;-143.84;40.14;45022.41;5090013;28;20435;-55
2023/05/21 04:44:58;;;;;;;13.27;4.73;;;;;;;-143.84;39.63;45018.59;5090353;28;21172;-55
2023/05/21 04:47:28;;;;;;;8.10;4.40;;;;;;;-143.84;39.63;45022.41;5089873;28;20477;-55
2023/05/21 04:49:56;;;;;;;8.80;4.50;;;;;;;-143.84;38.25;45014.78;5062260;28;20485;-55
2023/05/21 04:52:23;;;;;;;11.70;4.30;;;;;;;-143.84;38.07;45033.84;5069588;28;20457;-55
2023/05/21 04:54:52;;;;;;;10.23;4.10;;;;;;;-143.84;37.94;45018.59;5069560;28;20804;-55
2023/05/21 04:57:20;;;;;;;7.63;3.90;;;;;;;-143.84;37.41;44991.94;5068518;28;20441;-54
2023/05/21 04:59:48;;;;;;;4.73;3.60;;;;;;;-143.84;37.82;45005.28;5049155;28;20528;-55
2023/05/21 05:02:15;;;;;;;10.27;4.43;;;;;;;-143.84;37.70;45003.38;5049403;28;20447;-55
2023/05/21 05:04:43;;;;;;;4.80;4.33;;;;;;;-143.84;37.58;45007.19;5049320;28;20547;-55
2023/05/21 05:07:11;;;;;;;10.70;4.43;;;;;;;-143.84;37.27;45007.19;5049031;28;20482;-55
2023/05/21 05:09:38;;;;;;;7.10;4.23;;;;;;;-143.84;36.81;45037.66;5049233;28;20438;-55
2023/05/21 05:12:06;;;;;;;11.80;4.07;;;;;;;-143.84;37.31;45007.19;5049753;28;20512;-55
2023/05/21 05:14:33;;;;;;;7.37;4.03;;;;;;;-143.84;37.40;45005.28;5069266;28;20436;-55
2023/05/21 05:17:00;;;;;;;12.97;4.80;;;;;;;-143.84;37.72;45030.03;5069153;28;20451;-54
2023/05/21 05:19:27;;;;;;;12.40;4.67;;;;;;;-143.84;37.85;45010.97;5057379;28;20529;-55
2023/05/21 05:21:56;;;;;;;8.07;4.40;;;;;;;-143.84;38.15;45020.50;5048964;28;20504;-54
2023/05/21 05:24:23;;;;;;;10.27;4.00;;;;;;;-143.84;38.12;45024.31;5048990;28;20454;-55
2023/05/21 05:26:50;;;;;;;6.90;4.03;;;;;;;-143.84;38.41;45003.38;5048847;28;20485;-55
2023/05/21 05:29:17;;;;;;;6.27;4.53;;;;;;;-143.84;38.10;45026.22;5048800;28;20990;-54
2023/05/21 05:31:44;;;;;;;6.63;3.53;;;;;;;-143.84;38.18;45022.41;5049124;28;20469;-54
2023/05/21 05:34:11;;;;;;;6.97;3.40;;;;;;;-143.84;37.81;45009.09;5049121;28;20491;-55
2023/05/21 05:36:38;;;;;;;10.13;3.60;;;;;;;-143.84;37.71;45010.97;5069090;28;20478;-57
2023/05/21 05:39:09;;;;;;;13.63;4.57;;;;;;;-143.84;37.67;45010.97;5071272;28;20503;-57
2023/05/21 05:41:36;;;;;;;7.70;4.23;;;;;;;-143.84;37.64;44991.94;5060993;28;20455;-56
2023/05/21 05:44:03;;;;;;;10.30;4.13;;;;;;;-143.84;37.91;44984.31;5062364;28;20462;-56
2023/05/21 05:46:30;;;;;;;8.73;4.27;;;;;;;-143.84;38.02;45030.03;5062868;28;20498;-56
2023/05/21 05:49:00;;;;;;;8.03;4.10;;;;;;;-143.84;37.49;45007.19;5060189;28;20469;-56
2023/05/21 05:51:27;;;;;;;9.73;3.90;;;;;;;-143.84;38.11;45018.59;5061785;28;20445;-55
2023/05/21 05:53:54;;;;;;;11.37;4.53;;;;;;;-143.84;37.63;44984.31;5061806;28;20469;-56
2023/05/21 05:56:23;;;;;;;10.80;4.93;;;;;;;-143.84;37.56;45003.38;5067523;28;20433;-56
2023/05/21 05:58:50;;;;;;;8.80;4.70;;;;;;;-143.84;37.72;45020.50;5067245;28;20450;-56
2023/05/21 06:01:17;;;;;;;10.00;4.30;;;;;;;-143.84;37.53;45010.97;5067989;28;20531;-56
2023/05/21 06:03:44;;;;;;;5.70;4.27;;;;;;;-143.84;37.74;45005.28;5067536;28;21031;-56
2023/05/21 06:06:11;;;;;;;14.53;4.00;;;;;;;-143.84;36.99;44991.94;5067599;28;20453;-56
2023/05/21 06:08:39;;;;;;;6.20;4.10;;;;;;;-143.84;36.57;45041.44;5067694;28;20504;-56
2023/05/21 06:11:06;;;;;;;10.23;3.70;;;;;;;-143.84;36.04;44993.84;5066203;28;20478;-55
2023/05/21 06:13:34;;;;;;;9.57;4.40;;;;;;;-143.84;35.82;44982.41;5059177;28;22187;-56
2023/05/21 06:16:02;;;;;;;13.53;4.13;;;;;;;-143.84;34.74;44971.00;5068651;28;20453;-56
2023/05/21 06:18:29;;;;;;;9.10;4.23;;;;;;;-143.84;34.74;44974.81;5070863;28;20451;-56
2023/05/21 06:20:56;;;;;;;5.60;4.00;;;;;;;-143.84;33.88;44990.03;5070434;28;20452;-56
2023/05/21 06:23:23;;;;;;;8.60;3.70;;;;;;;-143.84;33.99;44990.03;5067943;28;20469;-55
2023/05/21 06:25:50;;;;;;;20.77;3.77;;;;;;;-143.84;33.20;44957.66;5070497;28;20451;-56
2023/05/21 06:28:17;;;;;;;7.77;4.20;;;;;;;-143.84;32.80;44972.91;5070001;28;20496;-56
2023/05/21 06:30:46;;;;;;;5.00;4.50;;;;;;;-143.84;32.61;44953.88;5071111;28;20448;-56
2023/05/21 06:33:13;;;;;;;4.90;3.83;;;;;;;-143.84;33.03;44991.94;5069966;28;21020;-56
2023/05/21 06:35:40;;;;;;;6.93;4.37;;;;;;;-143.84;32.83;44990.03;5071078;28;20444;-56
2023/05/21 06:38:07;;;;;;;6.50;3.87;;;;;;;-143.84;33.00;44976.72;5070945;28;20458;-55
2023/05/21 06:40:35;;;;;;;5.60;4.40;;;;;;;-143.84;33.90;44961.47;5070957;28;20526;-56
2023/05/21 06:43:03;;;;;;;9.50;4.63;;;;;;;-143.84;33.24;45003.38;5070687;28;20443;-56
2023/05/21 06:45:30;;;;;;;9.23;4.20;;;;;;;-143.84;33.14;44963.38;5068952;28;20443;-56
2023/05/21 06:47:59;;;;;;;9.80;4.40;;;;;;;-143.84;34.14;44971.00;5070221;28;20482;-56
2023/05/21 06:50:26;;;;;;;12.00;4.10;;;;;;;-143.84;34.22;44984.31;5071073;28;20453;-55
2023/05/21 06:52:53;;;;;;;11.83;3.87;;;;;;;-143.84;34.22;44976.72;5070853;28;20463;-56
2023/05/21 06:55:20;;;;;;;6.73;4.13;;;;;;;-143.84;34.25;44974.81;5071104;28;20986;-55
2023/05/21 06:57:47;;;;;;;13.40;4.40;;;;;;;-143.84;33.82;44991.94;5071170;28;20448;-56
2023/05/21 07:00:15;;;;;;;15.70;4.57;;;;;;;-143.84;32.95;44980.53;5068829;28;20451;-56
2023/05/21 07:02:42;;;;;;;11.20;4.40;;;;;;;-143.84;33.29;44965.28;5070794;28;20449;-56
2023/05/21 07:05:11;;;;;;;10.73;5.10;;;;;;;-143.84;33.31;44961.47;5070981;28;20864;-56
2023/05/21 07:07:38;;;;;;;8.13;3.90;;;;;;;-143.84;33.88;44980.53;5070742;28;20543;-56
2023/05/21 07:10:07;;;;;;;9.50;4.77;;;;;;;-143.84;33.51;44940.53;5070913;28;20817;-55
2023/05/21 07:12:34;;;;;;;9.70;4.40;;;;;;;-143.84;33.25;44976.72;5070023;28;20874;-56
2023/05/21 07:15:01;;;;;;;5.20;3.60;;;;;;;-143.84;32.06;44950.06;5068426;28;20499;-56
2023/05/21 07:17:28;;;;;;;13.23;5.30;;;;;;;-143.84;32.61;44984.31;5070209;28;20517;-56
2023/05/21 07:19:55;;;;;;;11.53;4.57;;;;;;;-143.84;31.49;44971.00;5069490;28;20514;-56
2023/05/21 07:22:24;;;;;;;6.97;4.83;;;;;;;-143.84;31.66;44984.31;5069492;28;20445;-55
2023/05/21 07:24:51;;;;;;;8.53;4.17;;;;;;;-143.84;31.64;44944.34;5070611;28;20896;-56
2023/05/21 07:27:18;;;;;;;9.00;4.33;;;;;;;-143.84;31.90;44957.66;5070144;28;20453;-56
2023/05/21 07:29:45;;;;;;;9.53;4.67;;;;;;;-143.84;32.34;44957.66;5070299;28;20449;-56
2023/05/21 07:32:12;;;;;;;9.07;4.50;;;;;;;-143.84;32.01;44951.97;5069984;28;20453;-55
2023/05/21 07:34:40;;;;;;;7.87;5.30;;;;;;;-143.84;31.58;44965.28;5068897;28;21005;-56
2023/05/21 07:37:07;;;;;;;7.57;4.30;;;;;;;-143.84;32.48;44974.81;5070065;28;20452;-55
2023/05/21 07:39:36;;;;;;;8.13;4.70;;;;;;;-143.84;31.91;44955.75;5067778;28;20456;-56
2023/05/21 07:42:04;;;;;;;10.90;5.30;;;;;;;-143.84;32.93;44959.56;5068068;28;20454;-56
2023/05/21 07:44:31;;;;;;;12.27;4.50;;;;;;;-143.84;31.65;44938.63;5070214;28;20499;-55
2023/05/21 07:46:58;;;;;;;8.43;4.30;;;;;;;-143.84;31.38;44931.00;5069934;28;20451;-56
2023/05/21 07:49:25;;;;;;;5.53;4.60;;;;;;;-143.84;31.81;44942.44;5068938;28;20481;-56
2023/05/21 07:51:52;;;;;;;7.23;4.43;;;;;;;-143.84;31.36;44946.25;5069199;28;20482;-56
2023/05/21 07:54:19;;;;;;;14.53;4.47;;;;;;;-143.84;31.97;44951.97;5069648;28;20454;-56
2023/05/21 07:56:48;;;;;;;8.00;4.10;;;;;;;-143.84;32.17;44936.72;5069992;28;20441;-56
2023/05/21 07:59:17;;;;;;;8.43;5.00;;;;;;;-143.84;33.44;44951.97;5069681;28;20860;-56
2023/05/21 08:01:44;;;;;;;5.50;4.80;;;;;;;-143.84;32.46;44944.34;5069964;28;20500;-61
2023/05/21 08:04:12;;;;;;;6.47;4.37;;;;;;;-143.84;32.66;44931.00;5069795;28;20450;-56
2023/05/21 08:06:39;;;;;;;8.40;3.93;;;;;;;-143.84;32.98;44948.16;5069800;28;20932;-56
2023/05/21 08:09:07;;;;;;;7.53;4.57;;;;;;;-143.84;33.32;44931.00;5067044;28;20479;-56
2023/05/21 08:11:34;;;;;;;13.00;4.00;;;;;;;-143.84;32.72;44934.81;5068848;28;20458;-56
2023/05/21 08:14:03;;;;;;;12.43;4.40;;;;;;;-143.84;33.09;44919.59;5068089;28;20458;-55
2023/05/21 08:16:30;;;;;;;5.33;4.57;;;;;;;-143.84;33.05;44917.69;5069671;28;20533;-55
2023/05/21 08:18:57;;;;;;;11.80;4.83;;;;;;;-143.84;33.54;44957.66;5069134;28;20508;-55
2023/05/21 08:21:24;;;;;;;14.07;4.70;;;;;;;-143.84;33.61;44927.19;5069283;28;20750;-55
2023/05/21 08:23:52;;;;;;;8.53;4.43;;;;;;;-143.84;33.91;44921.50;5068997;28;20955;-55
2023/05/21 08:26:20;;;;;;;10.33;4.50;;;;;;;-143.84;34.47;44948.16;5068895;28;20437;-55
2023/05/21 08:28:47;;;;;;;9.57;4.57;;;;;;;-143.84;34.53;44969.09;5066248;28;20524;-55
2023/05/21 08:31:18;;;;;;;5.53;4.40;;;;;;;-143.84;34.53;44974.81;5068845;28;20882;-55
2023/05/21 08:33:50;;;;;;;11.20;4.67;;;;;;;-143.84;35.83;44965.28;5067142;28;20448;-55
2023/05/21 08:36:17;;;;;;;12.73;5.87;;;;;;;-143.84;35.03;44953.88;5068337;28;20461;-55
2023/05/21 08:38:45;;;;;;;11.93;4.60;;;;;;;-143.84;34.47;44953.88;5068293;28;20536;-55
2023/05/21 08:41:14;;;;;;;11.40;4.73;;;;;;;-143.84;35.41;44961.47;5068165;28;20859;-55
2023/05/21 08:43:42;;;;;;;8.30;4.40;;;;;;;-143.84;35.05;44957.66;5068199;28;20858;-55
2023/05/21 08:46:09;;;;;;;8.53;4.57;;;;;;;-143.84;35.17;44961.47;5066837;28;20511;-55
2023/05/21 08:48:38;;;;;;;7.90;4.90;;;;;;;-143.84;35.14;44961.47;5067985;28;20886;-55
2023/05/21 08:51:06;;;;;;;15.87;4.90;;;;;;;-143.84;35.14;44957.66;5068677;28;20454;-55
2023/05/21 08:53:34;;;;;;;9.70;4.80;;;;;;;-143.84;34.95;44921.50;5068894;28;20493;-55
2023/05/21 08:56:02;;;;;;;11.53;4.77;;;;;;;-143.84;34.87;44951.97;5066310;28;20532;-55
2023/05/21 08:58:32;;;;;;;7.10;3.53;;;;;;;-143.84;34.03;44911.97;5062222;28;20453;-55
2023/05/21 09:01:00;;;;;;;8.83;4.20;;;;;;;-143.84;34.10;44971.00;5060191;28;20457;-55
2023/05/21 09:03:30;;;;;;;6.40;4.60;;;;;;;-143.84;33.60;44944.34;5066582;28;20477;-55
2023/05/21 09:06:00;;;;;;;8.00;3.80;;;;;;;-143.84;33.91;44927.19;5060757;28;20449;-55
2023/05/21 09:08:31;;;;;;;5.40;3.90;;;;;;;-143.84;33.06;44931.00;5061844;28;20489;-55
2023/05/21 09:10:58;;;;;;;6.50;4.40;;;;;;;-143.84;32.76;44931.00;5060181;28;21096;-55
2023/05/21 09:13:27;;;;;;;6.87;3.83;;;;;;;-143.84;33.25;44944.34;5065383;28;20945;-55
2023/05/21 09:15:54;;;;;;;9.40;4.20;;;;;;;-143.84;32.97;44919.59;5068061;28;20448;-55
2023/05/21 09:18:21;;;;;;;16.03;3.60;;;;;;;-143.84;33.29;44940.53;5067705;28;20445;-55
2023/05/21 09:20:48;;;;;;;15.67;4.30;;;;;;;-143.84;33.77;44936.72;5068265;28;21016;-55
2023/05/21 09:23:20;;;;;;;9.90;4.37;;;;;;;-143.84;34.09;44940.53;5065772;28;20574;-55
2023/05/21 09:25:48;;;;;;;9.20;4.00;;;;;;;-143.84;34.34;44942.44;5068569;28;20520;-55
2023/05/21 09:28:16;;;;;;;8.40;4.30;;;;;;;-143.84;34.73;44972.91;5067607;28;20497;-55
2023/05/21 09:30:47;;;;;;;7.53;4.40;;;;;;;-143.84;34.48;44961.47;5067048;28;20453;-55
2023/05/21 09:33:24;;;;;;;13.10;4.57;;;;;;;-143.84;35.19;44976.72;5067967;28;20514;-55
2023/05/21 09:35:52;;;;;;;5.10;3.57;;;;;;;-143.84;35.63;44955.75;5067966;28;20447;-54
2023/05/21 09:38:22;;;;;;;7.57;4.10;;;;;;;-143.84;35.52;44942.44;5061426;28;20518;-55
2023/05/21 09:40:49;;;;;;;7.00;3.97;;;;;;;-143.84;35.11;44971.00;5060417;28;20443;-55
2023/05/21 09:43:16;;;;;;;8.53;4.37;;;;;;;-143.84;36.01;44957.66;5067287;28;20501;-55
2023/05/21 09:45:54;;;;;;;4.57;3.93;;;;;;;-143.84;36.27;44974.81;5067739;28;20452;-55
2023/05/21 09:48:36;;;;;;;8.53;4.80;;;;;;;-143.84;35.90;44974.81;5065123;28;20476;-55
2023/05/21 09:51:11;;;;;;;7.70;3.70;;;;;;;-143.84;36.11;44961.47;5065550;28;20993;-55
2023/05/21 09:53:48;;;;;;;12.53;3.87;;;;;;;-143.84;36.02;44953.88;5067474;28;20457;-55
2023/05/21 09:56:15;;;;;;;6.60;4.67;;;;;;;-143.84;35.92;44965.28;5064718;28;20448;-55
2023/05/21 09:58:44;;;;;;;14.73;4.80;;;;;;;-143.84;36.29;44919.59;5065712;28;20446;-55
2023/05/21 10:01:11;;;;;;;9.67;4.00;;;;;;;-143.84;35.76;44980.53;5067029;28;20460;-55
2023/05/21 10:03:40;;;;;;;7.80;4.20;;;;;;;-143.84;35.11;44969.09;5066515;28;21007;-55
2023/05/21 10:06:09;;;;;;;10.10;3.80;;;;;;;-143.84;35.28;44961.47;5067797;28;20449;-55
2023/05/21 10:08:39;;;;;;;8.40;3.87;;;;;;;-143.84;35.76;44963.38;5067129;28;20484;-52
2023/05/21 10:11:10;;;;;;;8.77;4.33;;;;;;;-143.84;35.29;44959.56;5067280;28;20954;-52
2023/05/21 10:13:43;;;;;;;19.23;4.50;;;;;;;-143.84;35.81;44986.22;5067753;28;20876;-52
2023/05/21 10:16:11;;;;;;;5.73;4.10;;;;;;;-143.84;35.57;44959.56;5065183;28;20483;-52
2023/05/21 10:18:40;;;;;;;8.83;4.50;;;;;;;-143.84;35.59;44976.72;5067602;28;20451;-52
2023/05/21 10:21:08;;;;;;;7.23;4.00;;;;;;;-143.84;35.62;44972.91;5068067;28;20913;-52
2023/05/21 10:23:36;;;;;;;5.10;3.77;;;;;;;-143.84;35.29;44969.09;5067973;28;20467;-52
2023/05/21 10:26:05;;;;;;;4.70;4.03;;;;;;;-143.84;35.56;44971.00;5067755;28;20455;-52
2023/05/21 10:28:34;;;;;;;15.27;4.43;;;;;;;-143.84;35.09;44969.09;5066190;28;21050;-52
2023/05/21 10:31:02;;;;;;;7.60;4.37;;;;;;;-143.84;35.19;44990.03;5067644;28;20456;-53
2023/05/21 10:33:30;;;;;;;15.73;5.00;;;;;;;-143.84;35.72;44944.34;5068002;28;20447;-52
2023/05/21 10:35:59;;;;;;;10.43;4.63;;;;;;;-143.84;35.22;44953.88;5067824;28;20890;-51
2023/05/21 10:38:27;;;;;;;17.33;4.40;;;;;;;-143.84;35.93;44955.75;5067568;28;20456;-52
2023/05/21 10:40:55;;;;;;;6.90;4.50;;;;;;;-143.84;36.35;44963.38;5066970;28;20470;-51
2023/05/21 10:43:48;;;;;;;9.67;4.10;;;;;;;-143.84;36.50;44942.44;5066774;28;20446;-52
2023/05/21 10:46:51;;;;;;;9.07;4.30;;;;;;;-143.84;35.67;44940.53;5062479;28;20457;-52
2023/05/21 10:49:44;;;;;;;57.27;53.70;;;;;;;-143.84;35.56;44946.25;5066354;28;20519;-52
2023/05/21 10:52:25;;;;;;;384.97;354.00;;;;;;;-143.84;34.46;44959.56;5067856;28;20448;-52
2023/05/21 10:55:00;;;;;;;1201.90;957.27;;;;;;;-143.84;34.35;44934.81;5066586;28;20440;-53
2023/05/21 10:57:55;;;;;;;1476.67;999.90;;;;;;;-143.84;34.22;44953.88;5070232;28;21000;-56
2023/05/21 11:00:25;;;;;;;499.37;340.07;;;;;;;-143.84;33.53;44917.69;5069123;28;20968;-52
2023/05/21 11:02:53;;;;;;;1094.97;824.47;;;;;;;-143.84;34.71;44934.81;5071034;28;20464;-52
2023/05/21 11:05:41;;;;;;;478.83;429.83;;;;;;;-143.84;35.55;44927.19;5071084;28;20440;-56
2023/05/21 11:08:21;;;;;;;48.73;34.60;;;;;;;-143.84;34.22;44950.06;5069154;28;21068;-51
2023/05/21 11:10:52;;;;;;;621.83;442.20;;;;;;;-143.84;34.42;44932.91;5070777;28;20456;-51
2023/05/21 11:13:20;;;;;;;1293.97;991.50;;;;;;;-143.84;33.80;44913.88;5070944;28;20441;-56
2023/05/21 11:16:07;;;;;;;1595.43;999.90;;;;;;;-143.84;35.02;44911.97;5070809;28;20552;-56
2023/05/21 11:19:00;;;;;;;1309.77;998.60;;;;;;;-143.84;34.25;44942.44;5069209;28;20619;-57